Time;durP1;ratioP1;P1;durP2;ratioP2;P2;SDS_P1;SDS_P2;PMS_P1;PMS_P2;Temp;Humidity;BMP_temperature;BMP_pressure;BME280_temperature;BME280_humidity;BME280_pressure;Samples;Min_cycle;Max_cycle;Signal;HPM_P1;HPM_P2
2021/05/31 00:00:17;;;;;;;;;;;;;;;7.65;100.00;99949.16;5008002;28;19926;-75
2021/05/31 00:02:44;;;;;;;;;;;;;;;7.48;100.00;99949.00;4993330;28;20380;-75
2021/05/31 00:05:13;;;;;;;;;;;;;;;7.34;100.00;99946.88;4997216;28;19961;-75
2021/05/31 00:07:40;;;;;;;;;;;;;;;7.50;100.00;99946.66;4997300;28;19925;-75
2021/05/31 00:10:08;;;;;;;;;;;;;;;7.43;100.00;99941.81;4996864;28;19926;-75
2021/05/31 00:12:35;;;;;;;;;;;;;;;7.27;100.00;99942.03;4996764;28;19925;-75
2021/05/31 00:15:04;;;;;;;;;;;;;;;7.16;100.00;99931.97;4995892;28;19988;-75
2021/05/31 00:17:31;;;;;;;;;;;;;;;6.99;100.00;99935.34;5028196;28;19926;-75
2021/05/31 00:19:58;;;;;;;;;;;;;;;6.96;100.00;99930.53;4991168;28;20290;-75
2021/05/31 00:22:25;;;;;;;;;;;;;;;6.76;100.00;99923.53;4988433;28;19933;-75
2021/05/31 00:24:52;;;;;;;;;;;;;;;6.66;100.00;99927.00;5011359;28;20035;-75
2021/05/31 00:27:19;;;;;;;;;;;;;;;6.70;100.00;99933.38;4996775;28;20510;-75
2021/05/31 00:29:46;;;;;;;;;;;;;;;6.68;100.00;99936.53;4996557;28;19926;-75
2021/05/31 00:32:14;;;;;;;;;;;;;;;6.74;100.00;99937.03;4997164;28;20336;-75
2021/05/31 00:34:41;;;;;;;;;;;;;;;6.74;100.00;99935.03;4996456;28;20049;-75
2021/05/31 00:37:09;;;;;;;;;;;;;;;6.63;100.00;99928.56;4996303;28;19926;-75
2021/05/31 00:39:40;;;;;;;;;;;;;;;6.58;100.00;99939.16;4996160;28;19932;-75
2021/05/31 00:42:07;;;;;;;;;;;;;;;6.33;100.00;99932.47;4996905;28;19932;-75
2021/05/31 00:44:34;;;;;;;;;;;;;;;6.07;100.00;99935.25;4991817;28;19961;-75
2021/05/31 00:47:02;;;;;;;;;;;;;;;6.06;100.00;99936.44;5027089;28;19926;-75
2021/05/31 00:49:35;;;;;;;;;;;;;;;6.15;100.00;99940.53;4996446;28;19933;-75
2021/05/31 00:52:03;;;;;;;;;;;;;;;6.10;100.00;99948.38;4996229;28;20416;-75
2021/05/31 00:54:30;;;;;;;;;;;;;;;6.00;100.00;99944.25;4996074;28;19925;-75
2021/05/31 00:56:58;;;;;;;;;;;;;;;5.83;100.00;99946.75;4994686;28;19934;-75
2021/05/31 00:59:25;;;;;;;;;;;;;;;5.83;100.00;99950.28;4996273;28;19926;-75
2021/05/31 01:01:52;;;;;;;;;;;;;;;5.78;100.00;99941.47;4995344;28;20336;-75
2021/05/31 01:04:19;;;;;;;;;;;;;;;5.97;100.00;99944.22;4994249;28;19930;-75
2021/05/31 01:06:52;;;;;;;;;;;;;;;5.92;100.00;99938.97;4996202;28;20019;-75
2021/05/31 01:09:30;;;;;;;;;;;;;;;6.07;100.00;99954.66;4982677;28;19929;-75
2021/05/31 01:12:16;;;;;;;;;;;;;;;6.15;100.00;99957.16;4995467;28;20396;-75
2021/05/31 01:14:44;;;;;;;;;;;;;;;6.44;100.00;99961.19;4995244;28;19933;-75
2021/05/31 01:17:17;;;;;;;;;;;;;;;6.56;100.00;99955.41;4995537;28;19929;-75
2021/05/31 01:19:50;;;;;;;;;;;;;;;6.71;100.00;99971.09;5010651;28;20338;-75
2021/05/31 01:22:19;;;;;;;;;;;;;;;6.92;100.00;99963.06;5027009;28;19930;-75
2021/05/31 01:24:59;;;;;;;;;;;;;;;7.11;100.00;99971.22;4994383;28;20005;-75
2021/05/31 01:27:37;;;;;;;;;;;;;;;7.30;100.00;99971.03;4995704;28;20448;-75
2021/05/31 01:30:09;;;;;;;;;;;;;;;7.41;100.00;99974.75;4995545;28;19926;-75
2021/05/31 01:32:45;;;;;;;;;;;;;;;7.46;100.00;99979.16;4995412;28;19926;-75
2021/05/31 01:35:28;;;;;;;;;;;;;;;7.59;100.00;99981.28;4995566;28;19926;-75
2021/05/31 01:37:57;;;;;;;;;;;;;;;7.47;100.00;99984.34;4994871;28;19970;-75
2021/05/31 01:40:24;;;;;;;;;;;;;;;7.58;100.00;99979.69;4995087;28;19929;-75
2021/05/31 01:42:52;;;;;;;;;;;;;;;7.56;100.00;99982.06;5010225;28;19933;-75
2021/05/31 01:45:22;;;;;;;;;;;;;;;7.70;100.00;99984.19;4995141;28;20361;-75
2021/05/31 01:47:50;;;;;;;;;;;;;;;7.87;100.00;99992.72;4995119;28;20115;-75
2021/05/31 01:50:17;;;;;;;;;;;;;;;7.91;100.00;99982.41;4994794;28;20381;-75
2021/05/31 01:52:46;;;;;;;;;;;;;;;7.96;100.00;99984.84;4994814;28;20427;-75
2021/05/31 01:55:14;;;;;;;;;;;;;;;8.06;100.00;99989.69;4994936;28;19929;-75
2021/05/31 01:57:45;;;;;;;;;;;;;;;8.23;100.00;99977.94;4995214;28;20403;-75
2021/05/31 02:00:13;;;;;;;;;;;;;;;8.32;100.00;99975.63;4994971;28;20017;-75
2021/05/31 02:02:49;;;;;;;;;;;;;;;8.33;100.00;99971.66;5008785;28;19925;-75
2021/05/31 02:05:32;;;;;;;;;;;;;;;8.21;100.00;99974.69;4994666;28;20019;-75
2021/05/31 02:07:59;;;;;;;;;;;;;;;8.21;100.00;99960.00;4994645;28;19969;-75
2021/05/31 02:10:26;;;;;;;;;;;;;;;8.25;100.00;99969.22;4994626;28;19925;-75
2021/05/31 02:12:57;;;;;;;;;;;;;;;8.22;100.00;99973.56;4993745;28;20019;-75
2021/05/31 02:15:43;;;;;;;;;;;;;;;8.39;100.00;99975.66;4993463;28;19975;-75
2021/05/31 02:18:13;;;;;;;;;;;;;;;8.44;100.00;99972.53;4994345;28;20378;-75
2021/05/31 02:20:43;;;;;;;;;;;;;;;8.33;100.00;99968.84;4987957;28;20396;-75
2021/05/31 02:23:11;;;;;;;;;;;;;;;8.36;100.00;99970.88;4994691;28;19926;-75
2021/05/31 02:25:38;;;;;;;;;;;;;;;8.31;100.00;99970.44;4993826;28;20407;-75
2021/05/31 02:28:05;;;;;;;;;;;;;;;8.23;100.00;99964.03;4993463;28;19926;-75
2021/05/31 02:30:33;;;;;;;;;;;;;;;8.32;100.00;99974.81;4994302;28;19926;-75
2021/05/31 02:33:03;;;;;;;;;;;;;;;8.20;100.00;99959.19;4994247;28;19926;-75
2021/05/31 02:35:35;;;;;;;;;;;;;;;8.11;100.00;99980.19;4994237;28;20332;-75
2021/05/31 02:38:02;;;;;;;;;;;;;;;8.02;100.00;99972.19;4991676;28;19926;-75
2021/05/31 02:40:30;;;;;;;;;;;;;;;8.07;100.00;99969.03;4993097;28;20028;-75
2021/05/31 02:42:58;;;;;;;;;;;;;;;8.11;100.00;99967.09;5025751;28;20423;-75
2021/05/31 02:45:26;;;;;;;;;;;;;;;8.14;100.00;99965.50;4994117;28;20071;-75
2021/05/31 02:47:54;;;;;;;;;;;;;;;8.08;100.00;99959.50;4994137;28;19926;-75
2021/05/31 02:50:21;;;;;;;;;;;;;;;8.05;100.00;99960.28;4993860;28;20032;-75
2021/05/31 02:52:49;;;;;;;;;;;;;;;7.99;100.00;99961.81;5009371;28;20292;-75
2021/05/31 02:55:18;;;;;;;;;;;;;;;7.99;100.00;99959.03;4992928;28;20045;-75
2021/05/31 02:57:45;;;;;;;;;;;;;;;8.12;100.00;99963.09;4993611;28;19933;-75
2021/05/31 03:00:14;;;;;;;;;;;;;;;8.23;100.00;99958.44;4993822;28;20381;-75
2021/05/31 03:02:41;;;;;;;;;;;;;;;8.20;100.00;99952.81;4993370;28;19930;-75
2021/05/31 03:05:11;;;;;;;;;;;;;;;8.12;100.00;99957.53;4993241;28;20016;-75
2021/05/31 03:07:38;;;;;;;;;;;;;;;8.07;100.00;99957.91;4994082;28;19975;-75
2021/05/31 03:10:05;;;;;;;;;;;;;;;7.97;100.00;99961.38;4993495;28;19933;-75
2021/05/31 03:12:33;;;;;;;;;;;;;;;7.92;100.00;99955.38;4992473;28;19930;-75
2021/05/31 03:15:00;;;;;;;;;;;;;;;7.95;100.00;99946.28;4993433;28;20487;-75
2021/05/31 03:17:27;;;;;;;;;;;;;;;7.90;100.00;99941.84;4992426;28;19976;-75
2021/05/31 03:19:54;;;;;;;;;;;;;;;7.92;100.00;99936.69;5008560;28;19992;-76
2021/05/31 03:22:22;;;;;;;;;;;;;;;7.80;100.00;99945.31;4993359;28;19972;-75
2021/05/31 03:24:49;;;;;;;;;;;;;;;7.82;100.00;99939.38;4992397;28;19926;-75
2021/05/31 03:27:16;;;;;;;;;;;;;;;7.85;100.00;99933.84;5024856;28;20393;-75
2021/05/31 03:29:44;;;;;;;;;;;;;;;7.72;100.00;99928.97;4993581;28;19925;-75
2021/05/31 03:32:11;;;;;;;;;;;;;;;7.62;100.00;99936.03;4992910;28;20024;-75
2021/05/31 03:34:38;;;;;;;;;;;;;;;7.65;100.00;99938.03;4992317;28;19925;-75
2021/05/31 03:37:05;;;;;;;;;;;;;;;7.75;100.00;99928.19;4993304;28;19938;-75
2021/05/31 03:39:32;;;;;;;;;;;;;;;7.78;100.00;99928.25;4991942;28;20076;-75
2021/05/31 03:42:00;;;;;;;;;;;;;;;7.92;100.00;99928.34;4993528;28;20005;-75
2021/05/31 03:44:27;;;;;;;;;;;;;;;7.88;100.00;99926.72;4993167;28;19926;-75
2021/05/31 03:46:54;;;;;;;;;;;;;;;7.81;100.00;99921.91;4992941;28;20153;-75
2021/05/31 03:49:23;;;;;;;;;;;;;;;7.72;100.00;99923.41;4993031;28;19926;-75
2021/05/31 03:51:50;;;;;;;;;;;;;;;7.76;100.00;99924.22;4993196;28;19926;-75
2021/05/31 03:54:17;;;;;;;;;;;;;;;7.85;100.00;99919.94;4992137;28;19925;-75
2021/05/31 03:56:44;;;;;;;;;;;;;;;7.91;100.00;99923.16;4993426;28;19937;-75
2021/05/31 03:59:11;;;;;;;;;;;;;;;7.99;100.00;99919.25;4991939;28;19969;-75
2021/05/31 04:01:38;;;;;;;;;;;;;;;8.07;100.00;99918.94;4991503;28;20012;-75
2021/05/31 04:04:05;;;;;;;;;;;;;;;7.85;100.00;99922.72;4993081;28;19968;-75
2021/05/31 04:11:46;;;;;;;;;;;;;;;7.48;100.00;99918.41;4993127;28;19930;-75
2021/05/31 04:14:14;;;;;;;;;;;;;;;7.36;100.00;99923.06;4992010;28;20360;-75
2021/05/31 04:16:42;;;;;;;;;;;;;;;7.49;100.00;99926.38;4992565;28;19934;-75
2021/05/31 04:19:10;;;;;;;;;;;;;;;7.48;100.00;99930.34;4992870;28;19926;-75
2021/05/31 04:21:38;;;;;;;;;;;;;;;7.50;100.00;99927.19;5007915;28;20395;-75
2021/05/31 04:24:06;;;;;;;;;;;;;;;7.36;100.00;99933.41;4991636;28;20064;-75
2021/05/31 04:26:34;;;;;;;;;;;;;;;7.34;100.00;99924.63;4992860;28;20403;-75
2021/05/31 04:29:02;;;;;;;;;;;;;;;7.34;100.00;99919.06;5007809;28;19933;-75
2021/05/31 04:31:29;;;;;;;;;;;;;;;7.10;100.00;99916.81;5023681;28;19926;-75
2021/05/31 04:33:56;;;;;;;;;;;;;;;7.11;100.00;99926.75;4989344;28;19962;-75
2021/05/31 04:36:24;;;;;;;;;;;;;;;7.11;100.00;99918.41;4991526;28;19926;-76
2021/05/31 04:38:51;;;;;;;;;;;;;;;7.21;100.00;99909.38;4992808;28;20011;-75
2021/05/31 04:41:18;;;;;;;;;;;;;;;7.29;100.00;99913.84;4992522;28;20436;-75
2021/05/31 04:43:45;;;;;;;;;;;;;;;7.51;100.00;99912.09;4991700;28;19940;-75
2021/05/31 04:46:12;;;;;;;;;;;;;;;7.67;100.00;99921.78;4992268;28;19972;-75
2021/05/31 04:48:40;;;;;;;;;;;;;;;7.83;100.00;99919.53;4992735;28;19933;-75
2021/05/31 04:51:07;;;;;;;;;;;;;;;7.78;100.00;99917.09;4996056;28;19937;-75
2021/05/31 04:53:34;;;;;;;;;;;;;;;7.87;100.00;99920.38;4996454;28;19926;-75
2021/05/31 04:56:04;;;;;;;;;;;;;;;7.97;100.00;99914.06;5011401;28;19941;-75
2021/05/31 04:58:31;;;;;;;;;;;;;;;8.07;100.00;99918.94;4991728;28;19926;-75
2021/05/31 05:00:59;;;;;;;;;;;;;;;8.17;100.00;99921.00;4989459;28;19932;-75
2021/05/31 05:03:26;;;;;;;;;;;;;;;8.28;100.00;99919.13;4995972;28;20079;-75
2021/05/31 05:05:54;;;;;;;;;;;;;;;8.36;100.00;99914.41;4996021;28;20210;-75
2021/05/31 05:08:21;;;;;;;;;;;;;;;8.36;100.00;99920.75;4995781;28;19933;-75
2021/05/31 05:10:48;;;;;;;;;;;;;;;8.45;100.00;99917.63;4995913;28;19933;-75
2021/05/31 05:13:15;;;;;;;;;;;;;;;8.43;100.00;99915.25;5027337;28;19926;-75
2021/05/31 05:15:42;;;;;;;;;;;;;;;8.49;100.00;99910.91;4995067;28;19926;-75
2021/05/31 05:18:10;;;;;;;;;;;;;;;8.42;100.00;99913.63;4995443;28;19933;-75
2021/05/31 05:20:37;;;;;;;;;;;;;;;8.03;100.00;99912.53;5027038;28;19925;-75
2021/05/31 05:23:04;;;;;;;;;;;;;;;8.16;100.00;99911.06;4995884;28;20369;-75
2021/05/31 05:25:42;;;;;;;;;;;;;;;8.02;100.00;99902.59;4994290;28;19937;-75
2021/05/31 05:28:09;;;;;;;;;;;;;;;7.99;100.00;99899.78;4995633;28;19926;-75
2021/05/31 05:30:36;;;;;;;;;;;;;;;7.74;100.00;99904.34;4994978;28;19932;-75
2021/05/31 05:33:03;;;;;;;;;;;;;;;7.79;100.00;99896.44;4995449;28;19933;-75
2021/05/31 05:35:37;;;;;;;;;;;;;;;7.88;100.00;99896.91;4994556;28;19925;-75
2021/05/31 05:38:30;;;;;;;;;;;;;;;8.03;100.00;99900.59;4982887;28;20420;-75
2021/05/31 05:41:15;;;;;;;;;;;;;;;8.13;100.00;99899.88;4995393;28;20370;-75
2021/05/31 05:49:24;;;;;;;;;;;;;;;8.65;100.00;99894.66;4992675;28;20044;-75
2021/05/31 05:51:51;;;;;;;;;;;;;;;8.71;100.00;99895.06;4992904;28;19932;-75
2021/05/31 05:54:18;;;;;;;;;;;;;;;8.80;100.00;99887.94;4992791;28;19996;-75
2021/05/31 05:56:45;;;;;;;;;;;;;;;8.91;100.00;99880.44;4976721;28;19929;-75
2021/05/31 05:59:13;;;;;;;;;;;;;;;9.02;100.00;99881.28;4972891;28;19926;-75
2021/05/31 06:01:40;;;;;;;;;;;;;;;9.07;100.00;99878.09;4990706;28;20440;-75
2021/05/31 06:04:07;;;;;;;;;;;;;;;9.10;100.00;99877.28;4992872;28;19934;-75
2021/05/31 06:06:34;;;;;;;;;;;;;;;9.25;100.00;99874.56;4976432;28;19930;-75
2021/05/31 06:09:01;;;;;;;;;;;;;;;9.23;100.00;99863.78;4992639;28;19949;-75
2021/05/31 06:11:29;;;;;;;;;;;;;;;9.19;100.00;99866.56;4987842;28;19926;-75
2021/05/31 06:13:56;;;;;;;;;;;;;;;9.16;100.00;99861.78;4975316;28;20020;-75
2021/05/31 06:16:24;;;;;;;;;;;;;;;9.21;100.00;99848.66;4991842;28;19953;-76
2021/05/31 06:18:51;;;;;;;;;;;;;;;9.33;100.00;99862.22;4991397;28;19926;-75
2021/05/31 06:21:18;;;;;;;;;;;;;;;9.39;100.00;99860.63;5005712;28;19933;-75
2021/05/31 06:23:45;;;;;;;;;;;;;;;9.45;100.00;99859.06;4991770;28;19930;-75
2021/05/31 06:26:12;;;;;;;;;;;;;;;9.52;100.00;99853.47;4982712;28;19969;-75
2021/05/31 06:28:42;;;;;;;;;;;;;;;9.41;100.00;99853.47;4989148;28;20373;-75
2021/05/31 06:31:10;;;;;;;;;;;;;;;9.37;100.00;99846.28;4994818;28;19926;-75
2021/05/31 06:33:37;;;;;;;;;;;;;;;9.51;100.00;99837.94;5002257;28;20296;-75
2021/05/31 06:36:08;;;;;;;;;;;;;;;9.53;100.00;99841.09;4996296;28;19930;-76
2021/05/31 06:38:36;;;;;;;;;;;;;;;8.93;100.00;99839.03;5007542;28;19936;-75
2021/05/31 06:41:06;;;;;;;;;;;;;;;8.89;100.00;99832.63;5001804;28;20020;-75
2021/05/31 06:43:34;;;;;;;;;;;;;;;9.10;100.00;99835.47;4993954;28;20329;-75
2021/05/31 06:46:05;;;;;;;;;;;;;;;9.00;100.00;99839.06;5004144;28;19996;-75
2021/05/31 06:48:32;;;;;;;;;;;;;;;9.09;100.00;99831.09;5000732;28;19925;-75
2021/05/31 06:50:59;;;;;;;;;;;;;;;9.26;100.00;99834.31;4995251;28;19956;-75
2021/05/31 06:53:26;;;;;;;;;;;;;;;9.51;100.00;99835.91;4993758;28;19929;-76
2021/05/31 06:55:53;;;;;;;;;;;;;;;9.26;100.00;99834.31;4993578;28;19929;-75
2021/05/31 06:58:21;;;;;;;;;;;;;;;9.49;100.00;99831.94;4994767;28;20055;-75
2021/05/31 07:00:50;;;;;;;;;;;;;;;9.59;100.00;99831.16;4993291;28;19926;-75
2021/05/31 07:03:19;;;;;;;;;;;;;;;9.73;100.00;99833.94;4999560;28;19976;-76
2021/05/31 07:05:48;;;;;;;;;;;;;;;9.63;100.00;99835.56;4998325;28;19926;-75
2021/05/31 07:08:17;;;;;;;;;;;;;;;9.83;100.00;99833.94;5010385;28;20199;-75
2021/05/31 07:10:46;;;;;;;;;;;;;;;9.76;100.00;99830.34;4993144;28;19936;-75
2021/05/31 07:13:13;;;;;;;;;;;;;;;10.01;100.00;99831.13;4992426;28;20020;-75
2021/05/31 07:15:41;;;;;;;;;;;;;;;10.05;100.00;99827.13;4993404;28;19925;-76
2021/05/31 07:18:15;;;;;;;;;;;;;;;10.31;100.00;99834.28;5021496;28;19934;-75
2021/05/31 07:21:06;;;;;;;;;;;;;;;10.43;100.00;99823.47;4999883;28;20288;-75
2021/05/31 07:23:59;;;;;;;;;;;;;;;10.51;100.00;99821.44;5004817;28;20046;-75
2021/05/31 07:26:34;;;;;;;;;;;;;;;11.08;100.00;99821.94;4992371;28;19926;-75
2021/05/31 07:29:06;;;;;;;;;;;;;;;11.32;100.00;99821.00;5000558;28;19938;-75
2021/05/31 07:31:35;;;;;;;;;;;;;;;11.29;100.00;99819.00;5003306;28;19956;-75
2021/05/31 07:34:03;;;;;;;;;;;;;;;11.27;100.00;99808.25;4992970;28;19926;-75
2021/05/31 07:36:30;;;;;;;;;;;;;;;11.46;100.00;99804.91;4998372;28;19929;-75
2021/05/31 07:38:58;;;;;;;;;;;;;;;10.97;100.00;99799.66;5013306;28;19932;-75
2021/05/31 07:41:25;;;;;;;;;;;;;;;11.17;100.00;99797.94;4992989;28;19926;-75
2021/05/31 07:43:52;;;;;;;;;;;;;;;11.06;100.00;99794.41;5024213;28;19957;-76
2021/05/31 07:46:19;;;;;;;;;;;;;;;11.26;100.00;99795.47;5024743;28;19933;-75
2021/05/31 07:48:48;;;;;;;;;;;;;;;11.46;100.00;99795.72;4993188;28;19926;-75
2021/05/31 07:51:20;;;;;;;;;;;;;;;12.27;100.00;99788.16;4993197;28;19929;-75
2021/05/31 07:53:48;;;;;;;;;;;;;;;12.52;100.00;99782.25;5007857;28;20373;-75
2021/05/31 07:56:15;;;;;;;;;;;;;;;12.63;100.00;99777.31;4992957;28;19932;-75
2021/05/31 07:58:43;;;;;;;;;;;;;;;12.65;100.00;99764.44;5024256;28;20028;-76
2021/05/31 08:01:11;;;;;;;;;;;;;;;14.67;100.00;99757.78;4992930;28;20333;-76
2021/05/31 08:03:41;;;;;;;;;;;;;;;14.54;100.00;99754.03;4993094;28;20274;-75
2021/05/31 08:06:09;;;;;;;;;;;;;;;13.71;100.00;99745.97;4992652;28;19937;-75
2021/05/31 08:08:39;;;;;;;;;;;;;;;12.16;100.00;99737.03;4992099;28;19933;-75
2021/05/31 08:11:08;;;;;;;;;;;;;;;11.86;100.00;99744.59;4992607;28;19973;-75
2021/05/31 08:13:35;;;;;;;;;;;;;;;11.70;100.00;99750.75;4992778;28;19926;-75
2021/05/31 08:16:03;;;;;;;;;;;;;;;13.11;100.00;99747.00;4992899;28;20288;-75
2021/05/31 08:18:30;;;;;;;;;;;;;;;13.45;100.00;99741.25;5007818;28;20029;-75
2021/05/31 08:20:58;;;;;;;;;;;;;;;12.57;100.00;99740.53;4992256;28;19925;-75
2021/05/31 08:23:25;;;;;;;;;;;;;;;12.11;100.00;99745.91;4991651;28;19929;-75
2021/05/31 08:25:53;;;;;;;;;;;;;;;12.28;100.00;99732.91;5011214;28;19948;-75
2021/05/31 08:28:20;;;;;;;;;;;;;;;12.47;100.00;99740.66;4996666;28;19926;-75
2021/05/31 08:30:47;;;;;;;;;;;;;;;12.74;100.00;99733.88;5011253;28;19926;-76
2021/05/31 08:33:14;;;;;;;;;;;;;;;12.51;100.00;99731.00;4996526;28;19926;-75
2021/05/31 08:35:42;;;;;;;;;;;;;;;13.09;100.00;99726.19;4996263;28;19930;-75
2021/05/31 08:38:09;;;;;;;;;;;;;;;13.04;100.00;99718.25;4995987;28;20292;-76
2021/05/31 08:40:37;;;;;;;;;;;;;;;12.10;100.00;99724.69;5011191;28;20388;-75
2021/05/31 08:43:04;;;;;;;;;;;;;;;12.51;100.00;99719.00;4996393;28;19926;-75
2021/05/31 08:45:32;;;;;;;;;;;;;;;12.14;100.00;99728.28;5024552;28;19927;-75
2021/05/31 08:47:59;;;;;;;;;;;;;;;12.25;100.00;99728.91;4994737;28;19930;-75
2021/05/31 08:50:28;;;;;;;;;;;;;;;12.14;100.00;99721.88;4996099;28;20331;-75
2021/05/31 08:52:55;;;;;;;;;;;;;;;12.62;100.00;99720.44;4995789;28;19926;-75
2021/05/31 08:55:23;;;;;;;;;;;;;;;12.86;100.00;99718.47;5007720;28;19966;-75
2021/05/31 08:57:50;;;;;;;;;;;;;;;13.15;100.00;99718.88;5006914;28;19930;-75
2021/05/31 09:00:23;;;;;;;;;;;;;;;12.49;100.00;99716.63;4984173;28;19926;-75
2021/05/31 09:02:51;;;;;;;;;;;;;;;12.51;100.00;99711.38;5027410;28;19930;-75
2021/05/31 09:05:32;;;;;;;;;;;;;;;13.24;100.00;99714.31;5008654;28;20353;-75
2021/05/31 09:08:04;;;;;;;;;;;;;;;13.26;100.00;99711.06;5010487;28;19926;-75
2021/05/31 09:10:35;;;;;;;;;;;;;;;13.15;100.00;99711.25;4993486;28;19941;-76
2021/05/31 09:13:03;;;;;;;;;;;;;;;13.45;100.00;99702.72;4994757;28;19961;-76
2021/05/31 09:15:31;;;;;;;;;;;;;;;13.55;100.00;99698.16;4995665;28;20051;-76
2021/05/31 09:17:59;;;;;;;;;;;;;;;13.31;100.00;99696.56;4995050;28;19929;-76
2021/05/31 09:20:26;;;;;;;;;;;;;;;13.65;100.00;99697.16;4994393;28;19926;-76
2021/05/31 09:22:55;;;;;;;;;;;;;;;14.14;100.00;99687.78;4993311;28;19925;-77
2021/05/31 09:25:25;;;;;;;;;;;;;;;14.29;100.00;99687.09;4994345;28;19926;-76
2021/05/31 09:27:52;;;;;;;;;;;;;;;14.08;100.00;99684.69;4994430;28;19929;-77
2021/05/31 09:30:30;;;;;;;;;;;;;;;13.78;100.00;99689.69;5007070;28;20415;-77
2021/05/31 09:32:57;;;;;;;;;;;;;;;14.31;100.00;99684.63;4993918;28;20072;-78
2021/05/31 09:35:24;;;;;;;;;;;;;;;14.62;100.00;99692.78;4993676;28;19930;-77
2021/05/31 09:37:52;;;;;;;;;;;;;;;14.44;100.00;99687.56;4994925;28;19926;-78
2021/05/31 09:40:24;;;;;;;;;;;;;;;14.91;100.00;99683.28;4994474;28;19933;-77
2021/05/31 09:42:52;;;;;;;;;;;;;;;14.52;100.00;99674.94;4990487;28;19969;-78
2021/05/31 09:45:20;;;;;;;;;;;;;;;14.71;100.00;99674.09;5013613;28;20409;-79
2021/05/31 09:47:47;;;;;;;;;;;;;;;14.85;100.00;99673.78;4990345;28;19929;-78
2021/05/31 09:50:34;;;;;;;;;;;;;;;14.29;100.00;99663.78;5025699;28;19926;-78
2021/05/31 09:53:11;;;;;;;;;;;;;;;14.60;100.00;99672.75;4994773;28;19933;-79
2021/05/31 09:55:39;;;;;;;;;;;;;;;15.13;100.00;99666.69;4990746;28;20017;-78
2021/05/31 09:58:10;;;;;;;;;;;;;;;15.32;100.00;99671.41;4994475;28;19963;-78
2021/05/31 10:00:43;;;;;;;;;;;;;;;15.73;100.00;99678.00;4993632;28;19926;-79
2021/05/31 10:03:34;;;;;;;;;;;;;;;15.90;100.00;99659.78;5026778;28;19925;-79
2021/05/31 10:11:04;;;;;;;;;;;;;;;14.83;100.00;99662.16;4994021;28;19925;-77
2021/05/31 10:13:33;;;;;;;;;;;;;;;15.24;100.00;99645.47;5007125;28;19952;-78
2021/05/31 10:16:03;;;;;;;;;;;;;;;16.03;100.00;99660.63;4985450;28;19948;-78
2021/05/31 10:18:31;;;;;;;;;;;;;;;15.57;100.00;99651.88;4983952;28;20020;-77
2021/05/31 10:20:58;;;;;;;;;;;;;;;15.24;100.00;99644.66;4991540;28;19961;-77
2021/05/31 10:23:25;;;;;;;;;;;;;;;15.08;100.00;99645.47;4996616;28;20274;-77
2021/05/31 10:26:01;;;;;;;;;;;;;;;15.17;100.00;99634.41;4994275;28;19972;-76
2021/05/31 10:28:32;;;;;;;;;;;;;;;15.49;100.00;99642.84;4992788;28;19980;-77
2021/05/31 10:31:00;;;;;;;;;;;;;;;15.39;100.00;99631.81;4990527;28;20085;-77
2021/05/31 10:33:28;;;;;;;;;;;;;;;15.06;100.00;99627.44;4992461;28;19936;-78
2021/05/31 10:36:07;;;;;;;;;;;;;;;15.42;100.00;99631.75;4994042;28;20408;-77
2021/05/31 10:38:36;;;;;;;;;;;;;;;15.17;100.00;99628.75;4992741;28;20012;-77
2021/05/31 10:41:11;;;;;;;;;;;;;;;15.21;100.00;99640.72;4985112;28;19926;-76
2021/05/31 10:43:42;;;;;;;;;;;;;;;15.09;100.00;99632.97;4992873;28;19925;-76
2021/05/31 10:46:14;;;;;;;;;;;;;;;15.14;100.00;99628.84;4991275;28;19947;-77
2021/05/31 10:48:43;;;;;;;;;;;;;;;14.40;100.00;99630.63;5022848;28;20016;-76
2021/05/31 10:51:12;;;;;;;;;;;;;;;14.53;100.00;99628.72;4992970;28;19992;-76
2021/05/31 10:53:40;;;;;;;;;;;;;;;15.42;100.00;99631.75;4993540;28;19926;-77
2021/05/31 10:56:07;;;;;;;;;;;;;;;15.16;100.00;99629.97;4976019;28;19956;-76
2021/05/31 10:58:39;;;;;;;;;;;;;;;15.36;100.00;99618.59;4993578;28;19926;-76
2021/05/31 11:01:11;;;;;;;;;;;;;;;15.58;100.00;99626.09;4993182;28;19934;-76
2021/05/31 11:03:51;;;;;;;;;;;;;;;15.79;100.00;99614.22;4992974;28;19972;-77
2021/05/31 11:06:22;;;;;;;;;;;;;;;16.11;100.00;99608.44;4988798;28;19968;-76
2021/05/31 11:09:06;;;;;;;;;;;;;;;15.88;100.00;99605.91;4988706;28;20100;-76
2021/05/31 11:11:41;;;;;;;;;;;;;;;15.82;100.00;99598.44;5024146;28;19932;-77
2021/05/31 11:14:09;;;;;;;;;;;;;;;15.90;100.00;99597.03;5008250;28;19930;-76
2021/05/31 11:16:50;;;;;;;;;;;;;;;15.92;100.00;99595.31;4991731;28;20419;-76
2021/05/31 11:19:17;;;;;;;;;;;;;;;16.12;100.00;99601.59;4993311;28;19937;-77
2021/05/31 11:21:45;;;;;;;;;;;;;;;15.96;100.00;99596.00;4993336;28;19926;-76
2021/05/31 11:24:13;;;;;;;;;;;;;;;15.59;100.00;99598.69;4987588;28;19930;-76
2021/05/31 11:26:43;;;;;;;;;;;;;;;15.70;100.00;99582.28;4992670;28;19926;-76
2021/05/31 11:29:11;;;;;;;;;;;;;;;15.69;100.00;99581.50;4992816;28;20407;-76
2021/05/31 11:31:39;;;;;;;;;;;;;;;16.10;100.00;99584.31;4992695;28;20296;-76
2021/05/31 11:34:07;;;;;;;;;;;;;;;16.46;100.00;99584.06;4992955;28;19925;-76
2021/05/31 11:36:39;;;;;;;;;;;;;;;15.99;100.00;99578.19;4992977;28;20018;-76
2021/05/31 11:39:08;;;;;;;;;;;;;;;16.16;100.00;99576.13;4993331;28;19926;-76
2021/05/31 11:41:40;;;;;;;;;;;;;;;15.69;100.00;99578.69;4993338;28;20348;-76
2021/05/31 11:44:08;;;;;;;;;;;;;;;15.69;100.00;99575.09;5005523;28;19937;-76
2021/05/31 11:46:45;;;;;;;;;;;;;;;15.68;100.00;99574.28;4992052;28;19948;-76
2021/05/31 11:49:12;;;;;;;;;;;;;;;15.99;100.00;99578.19;4987757;28;20440;-76
2021/05/31 11:51:39;;;;;;;;;;;;;;;16.30;100.00;99575.66;5005834;28;19926;-76
2021/05/31 11:54:06;;;;;;;;;;;;;;;16.05;100.00;99559.50;4992956;28;19961;-76
2021/05/31 11:56:35;;;;;;;;;;;;;;;16.20;100.00;99563.50;5024266;28;20408;-76
2021/05/31 11:59:02;;;;;;;;;;;;;;;16.59;100.00;99559.44;4991945;28;20084;-76
2021/05/31 12:01:30;;;;;;;;;;;;;;;16.57;100.00;99556.28;4992466;28;19926;-76
2021/05/31 12:03:57;;;;;;;;;;;;;;;16.71;100.00;99552.22;5024069;28;19976;-76
2021/05/31 12:06:24;;;;;;;;;;;;;;;16.65;100.00;99551.19;4982420;28;19926;-77
2021/05/31 12:08:53;;;;;;;;;;;;;;;16.50;100.00;99542.41;4986003;28;19929;-76
2021/05/31 12:11:22;;;;;;;;;;;;;;;16.98;100.00;99542.00;4992554;28;19979;-76
2021/05/31 12:13:58;;;;;;;;;;;;;;;17.01;100.00;99545.97;4992932;28;20024;-76
2021/05/31 12:16:26;;;;;;;;;;;;;;;16.79;100.00;99542.28;4992427;28;19926;-76
2021/05/31 12:18:52;;;;;;;;;;;;;;;16.93;100.00;99522.84;4991683;28;19926;-76
2021/05/31 12:21:20;;;;;;;;;;;;;;;17.04;100.00;99528.13;4992750;28;19926;-76
2021/05/31 12:23:48;;;;;;;;;;;;;;;17.06;100.00;99525.63;4992698;28;20452;-76
2021/05/31 12:26:19;;;;;;;;;;;;;;;16.86;100.00;99531.53;4991703;28;19926;-76
2021/05/31 12:28:50;;;;;;;;;;;;;;;16.97;100.00;99534.00;4978455;28;19930;-76
2021/05/31 12:31:17;;;;;;;;;;;;;;;17.15;100.00;99539.81;5007581;28;20016;-76
2021/05/31 12:33:45;;;;;;;;;;;;;;;17.24;100.00;99529.41;4992451;28;19926;-77
2021/05/31 12:36:12;;;;;;;;;;;;;;;17.53;100.00;99523.53;5006909;28;19925;-77
2021/05/31 12:38:39;;;;;;;;;;;;;;;17.66;100.00;99515.81;5007455;28;20227;-77
2021/05/31 12:41:19;;;;;;;;;;;;;;;17.91;100.00;99515.63;4989973;28;19988;-77
2021/05/31 12:43:46;;;;;;;;;;;;;;;17.18;100.00;99517.09;4991762;28;19926;-77
2021/05/31 12:46:18;;;;;;;;;;;;;;;17.67;100.00;99509.69;5006714;28;19926;-77
2021/05/31 12:48:49;;;;;;;;;;;;;;;17.61;100.00;99505.88;4991078;28;19961;-77
2021/05/31 12:51:16;;;;;;;;;;;;;;;17.79;100.00;99506.00;5007303;28;19926;-76
2021/05/31 12:53:45;;;;;;;;;;;;;;;18.07;100.00;99498.44;4991825;28;19933;-77
2021/05/31 12:56:14;;;;;;;;;;;;;;;18.13;100.00;99505.06;4992248;28;20023;-76
2021/05/31 12:59:11;;;;;;;;;;;;;;;18.07;100.00;99498.44;4991571;28;20337;-76
2021/05/31 13:01:41;;;;;;;;;;;;;;;17.99;100.00;99503.59;4992430;28;19925;-76
2021/05/31 13:04:08;;;;;;;;;;;;;;;18.04;100.00;99490.88;4989059;28;19972;-76
2021/05/31 13:06:37;;;;;;;;;;;;;;;18.32;100.00;99503.91;4990907;28;19933;-77
2021/05/31 13:09:07;;;;;;;;;;;;;;;18.52;100.00;99495.06;4992402;28;19933;-76